<?xml version="1.0" encoding="UTF-8" standalone="no" ?>
<gpx xmlns="http://www.topografix.com/GPX/1/1" xmlns:xsi="http://www.w3.org/2001/XMLSchema-instance" xsi:schemaLocation="http://www.topografix.com/GPX/1/1 http://www.topografix.com/GPX/1/1/gpx.xsd" version="1.1" creator="VisuGPX - https://www.visugpx.com">
  <metadata>
    <name>12424100-Rouler Goûter Nord Bièvre</name>
  </metadata>
  <trk>
    <name><![CDATA[12424100-Rouler Goûter Nord Bièvre]]></name>
    <trkseg>
      <trkpt lat="45.50246" lon="5.14274">
        <ele>386</ele>
        <time>2021-01-11T13:19:05Z</time>
      </trkpt>
      <trkpt lat="45.50246" lon="5.14239">
        <ele>386</ele>
        <time>2021-01-11T13:19:11Z</time>
      </trkpt>
      <trkpt lat="45.50233" lon="5.14243">
        <ele>385</ele>
        <time>2021-01-11T13:19:14Z</time>
      </trkpt>
      <trkpt lat="45.50237" lon="5.14304">
        <ele>385</ele>
        <time>2021-01-11T13:19:24Z</time>
      </trkpt>
      <trkpt lat="45.5023" lon="5.14412">
        <ele>383</ele>
        <time>2021-01-11T13:19:42Z</time>
      </trkpt>
      <trkpt lat="45.50214" lon="5.14487">
        <ele>382</ele>
        <time>2021-01-11T13:19:54Z</time>
      </trkpt>
      <trkpt lat="45.50229" lon="5.14498">
        <ele>382</ele>
        <time>2021-01-11T13:19:58Z</time>
      </trkpt>
      <trkpt lat="45.50259" lon="5.1453">
        <ele>383</ele>
        <time>2021-01-11T13:20:07Z</time>
      </trkpt>
      <trkpt lat="45.5035" lon="5.14713">
        <ele>387</ele>
        <time>2021-01-11T13:20:44Z</time>
      </trkpt>
      <trkpt lat="45.50362" lon="5.14757">
        <ele>388</ele>
        <time>2021-01-11T13:20:52Z</time>
      </trkpt>
      <trkpt lat="45.50369" lon="5.14794">
        <ele>388</ele>
        <time>2021-01-11T13:20:58Z</time>
      </trkpt>
      <trkpt lat="45.50407" lon="5.15102">
        <ele>395</ele>
        <time>2021-01-11T13:21:49Z</time>
      </trkpt>
      <trkpt lat="45.50415" lon="5.15141">
        <ele>397</ele>
        <time>2021-01-11T13:21:56Z</time>
      </trkpt>
      <trkpt lat="45.50418" lon="5.15188">
        <ele>399</ele>
        <time>2021-01-11T13:22:03Z</time>
      </trkpt>
      <trkpt lat="45.50417" lon="5.15202">
        <ele>399</ele>
        <time>2021-01-11T13:22:06Z</time>
      </trkpt>
      <trkpt lat="45.5042" lon="5.15213">
        <ele>399</ele>
        <time>2021-01-11T13:22:08Z</time>
      </trkpt>
      <trkpt lat="45.50436" lon="5.15209">
        <ele>399</ele>
        <time>2021-01-11T13:22:11Z</time>
      </trkpt>
      <trkpt lat="45.50467" lon="5.15218">
        <ele>400</ele>
        <time>2021-01-11T13:22:19Z</time>
      </trkpt>
      <trkpt lat="45.50475" lon="5.15268">
        <ele>402</ele>
        <time>2021-01-11T13:22:27Z</time>
      </trkpt>
      <trkpt lat="45.50481" lon="5.15296">
        <ele>402</ele>
        <time>2021-01-11T13:22:32Z</time>
      </trkpt>
      <trkpt lat="45.50569" lon="5.15414">
        <ele>408</ele>
        <time>2021-01-11T13:23:00Z</time>
      </trkpt>
      <trkpt lat="45.50657" lon="5.15748">
        <ele>416</ele>
        <time>2021-01-11T13:23:59Z</time>
      </trkpt>
      <trkpt lat="45.50697" lon="5.15828">
        <ele>420</ele>
        <time>2021-01-11T13:24:15Z</time>
      </trkpt>
      <trkpt lat="45.50735" lon="5.15881">
        <ele>426</ele>
        <time>2021-01-11T13:24:27Z</time>
      </trkpt>
      <trkpt lat="45.50771" lon="5.15925">
        <ele>433</ele>
        <time>2021-01-11T13:24:38Z</time>
      </trkpt>
      <trkpt lat="45.50835" lon="5.15996">
        <ele>441</ele>
        <time>2021-01-11T13:24:57Z</time>
      </trkpt>
      <trkpt lat="45.50846" lon="5.16037">
        <ele>441</ele>
        <time>2021-01-11T13:25:04Z</time>
      </trkpt>
      <trkpt lat="45.50857" lon="5.16106">
        <ele>440</ele>
        <time>2021-01-11T13:25:16Z</time>
      </trkpt>
      <trkpt lat="45.50879" lon="5.16162">
        <ele>443</ele>
        <time>2021-01-11T13:25:26Z</time>
      </trkpt>
      <trkpt lat="45.50927" lon="5.16229">
        <ele>450</ele>
        <time>2021-01-11T13:25:42Z</time>
      </trkpt>
      <trkpt lat="45.51068" lon="5.16371">
        <ele>463</ele>
        <time>2021-01-11T13:26:22Z</time>
      </trkpt>
      <trkpt lat="45.51122" lon="5.1639">
        <ele>464</ele>
        <time>2021-01-11T13:26:35Z</time>
      </trkpt>
      <trkpt lat="45.51267" lon="5.16399">
        <ele>472</ele>
        <time>2021-01-11T13:27:09Z</time>
      </trkpt>
      <trkpt lat="45.51274" lon="5.164">
        <ele>474</ele>
        <time>2021-01-11T13:27:11Z</time>
      </trkpt>
      <trkpt lat="45.51303" lon="5.16343">
        <ele>481</ele>
        <time>2021-01-11T13:27:22Z</time>
      </trkpt>
      <trkpt lat="45.51326" lon="5.1632">
        <ele>484</ele>
        <time>2021-01-11T13:27:29Z</time>
      </trkpt>
      <trkpt lat="45.51357" lon="5.16279">
        <ele>487</ele>
        <time>2021-01-11T13:27:39Z</time>
      </trkpt>
      <trkpt lat="45.51386" lon="5.16248">
        <ele>488</ele>
        <time>2021-01-11T13:27:47Z</time>
      </trkpt>
      <trkpt lat="45.51413" lon="5.16222">
        <ele>487</ele>
        <time>2021-01-11T13:27:55Z</time>
      </trkpt>
      <trkpt lat="45.51408" lon="5.16189">
        <ele>485</ele>
        <time>2021-01-11T13:28:00Z</time>
      </trkpt>
      <trkpt lat="45.51402" lon="5.16162">
        <ele>484</ele>
        <time>2021-01-11T13:28:05Z</time>
      </trkpt>
      <trkpt lat="45.51365" lon="5.16129">
        <ele>481</ele>
        <time>2021-01-11T13:28:15Z</time>
      </trkpt>
      <trkpt lat="45.51329" lon="5.16084">
        <ele>475</ele>
        <time>2021-01-11T13:28:26Z</time>
      </trkpt>
      <trkpt lat="45.51331" lon="5.16077">
        <ele>474</ele>
        <time>2021-01-11T13:28:28Z</time>
      </trkpt>
      <trkpt lat="45.51351" lon="5.16058">
        <ele>472</ele>
        <time>2021-01-11T13:28:33Z</time>
      </trkpt>
      <trkpt lat="45.51394" lon="5.16037">
        <ele>470</ele>
        <time>2021-01-11T13:28:44Z</time>
      </trkpt>
      <trkpt lat="45.51402" lon="5.16027">
        <ele>468</ele>
        <time>2021-01-11T13:28:46Z</time>
      </trkpt>
      <trkpt lat="45.51402" lon="5.16023">
        <ele>467</ele>
        <time>2021-01-11T13:28:47Z</time>
      </trkpt>
      <trkpt lat="45.51423" lon="5.15969">
        <ele>459</ele>
        <time>2021-01-11T13:28:57Z</time>
      </trkpt>
      <trkpt lat="45.51467" lon="5.15945">
        <ele>460</ele>
        <time>2021-01-11T13:29:08Z</time>
      </trkpt>
      <trkpt lat="45.51508" lon="5.15993">
        <ele>460</ele>
        <time>2021-01-11T13:29:21Z</time>
      </trkpt>
      <trkpt lat="45.51504" lon="5.15973">
        <ele>461</ele>
        <time>2021-01-11T13:29:24Z</time>
      </trkpt>
      <trkpt lat="45.5145" lon="5.15865">
        <ele>465</ele>
        <time>2021-01-11T13:29:46Z</time>
      </trkpt>
      <trkpt lat="45.51383" lon="5.15818">
        <ele>464</ele>
        <time>2021-01-11T13:30:03Z</time>
      </trkpt>
      <trkpt lat="45.51378" lon="5.15809">
        <ele>465</ele>
        <time>2021-01-11T13:30:05Z</time>
      </trkpt>
      <trkpt lat="45.51375" lon="5.158">
        <ele>466</ele>
        <time>2021-01-11T13:30:07Z</time>
      </trkpt>
      <trkpt lat="45.51392" lon="5.15758">
        <ele>473</ele>
        <time>2021-01-11T13:30:15Z</time>
      </trkpt>
      <trkpt lat="45.51397" lon="5.15738">
        <ele>476</ele>
        <time>2021-01-11T13:30:18Z</time>
      </trkpt>
      <trkpt lat="45.51406" lon="5.1564">
        <ele>483</ele>
        <time>2021-01-11T13:30:34Z</time>
      </trkpt>
      <trkpt lat="45.51415" lon="5.1561">
        <ele>484</ele>
        <time>2021-01-11T13:30:40Z</time>
      </trkpt>
      <trkpt lat="45.51467" lon="5.1559">
        <ele>487</ele>
        <time>2021-01-11T13:30:52Z</time>
      </trkpt>
      <trkpt lat="45.51503" lon="5.15583">
        <ele>489</ele>
        <time>2021-01-11T13:31:01Z</time>
      </trkpt>
      <trkpt lat="45.51517" lon="5.15578">
        <ele>489</ele>
        <time>2021-01-11T13:31:04Z</time>
      </trkpt>
      <trkpt lat="45.51524" lon="5.15577">
        <ele>489</ele>
        <time>2021-01-11T13:31:06Z</time>
      </trkpt>
      <trkpt lat="45.51567" lon="5.15659">
        <ele>488</ele>
        <time>2021-01-11T13:31:22Z</time>
      </trkpt>
      <trkpt lat="45.51568" lon="5.15585">
        <ele>489</ele>
        <time>2021-01-11T13:31:34Z</time>
      </trkpt>
      <trkpt lat="45.51582" lon="5.15548">
        <ele>489</ele>
        <time>2021-01-11T13:31:41Z</time>
      </trkpt>
      <trkpt lat="45.51639" lon="5.15518">
        <ele>490</ele>
        <time>2021-01-11T13:31:56Z</time>
      </trkpt>
      <trkpt lat="45.51729" lon="5.15445">
        <ele>480</ele>
        <time>2021-01-11T13:32:20Z</time>
      </trkpt>
      <trkpt lat="45.51804" lon="5.15406">
        <ele>469</ele>
        <time>2021-01-11T13:32:38Z</time>
      </trkpt>
      <trkpt lat="45.51829" lon="5.1529">
        <ele>447</ele>
        <time>2021-01-11T13:32:58Z</time>
      </trkpt>
      <trkpt lat="45.51844" lon="5.15183">
        <ele>429</ele>
        <time>2021-01-11T13:33:16Z</time>
      </trkpt>
      <trkpt lat="45.51848" lon="5.15174">
        <ele>427</ele>
        <time>2021-01-11T13:33:18Z</time>
      </trkpt>
      <trkpt lat="45.51858" lon="5.15158">
        <ele>425</ele>
        <time>2021-01-11T13:33:21Z</time>
      </trkpt>
      <trkpt lat="45.51883" lon="5.15126">
        <ele>423</ele>
        <time>2021-01-11T13:33:29Z</time>
      </trkpt>
      <trkpt lat="45.51916" lon="5.14998">
        <ele>420</ele>
        <time>2021-01-11T13:33:51Z</time>
      </trkpt>
      <trkpt lat="45.52067" lon="5.1511">
        <ele>425</ele>
        <time>2021-01-11T13:34:31Z</time>
      </trkpt>
      <trkpt lat="45.52108" lon="5.15164">
        <ele>427</ele>
        <time>2021-01-11T13:34:44Z</time>
      </trkpt>
      <trkpt lat="45.52133" lon="5.15217">
        <ele>429</ele>
        <time>2021-01-11T13:34:55Z</time>
      </trkpt>
      <trkpt lat="45.52236" lon="5.15376">
        <ele>435</ele>
        <time>2021-01-11T13:35:30Z</time>
      </trkpt>
      <trkpt lat="45.52332" lon="5.15446">
        <ele>439</ele>
        <time>2021-01-11T13:35:55Z</time>
      </trkpt>
      <trkpt lat="45.52372" lon="5.15503">
        <ele>440</ele>
        <time>2021-01-11T13:36:09Z</time>
      </trkpt>
      <trkpt lat="45.5241" lon="5.1555">
        <ele>441</ele>
        <time>2021-01-11T13:36:20Z</time>
      </trkpt>
      <trkpt lat="45.52557" lon="5.15702">
        <ele>450</ele>
        <time>2021-01-11T13:37:03Z</time>
      </trkpt>
      <trkpt lat="45.52626" lon="5.15817">
        <ele>455</ele>
        <time>2021-01-11T13:37:27Z</time>
      </trkpt>
      <trkpt lat="45.52649" lon="5.1587">
        <ele>454</ele>
        <time>2021-01-11T13:37:38Z</time>
      </trkpt>
      <trkpt lat="45.52662" lon="5.15914">
        <ele>452</ele>
        <time>2021-01-11T13:37:45Z</time>
      </trkpt>
      <trkpt lat="45.52673" lon="5.15958">
        <ele>453</ele>
        <time>2021-01-11T13:37:53Z</time>
      </trkpt>
      <trkpt lat="45.52678" lon="5.16042">
        <ele>455</ele>
        <time>2021-01-11T13:38:07Z</time>
      </trkpt>
      <trkpt lat="45.52678" lon="5.16086">
        <ele>456</ele>
        <time>2021-01-11T13:38:14Z</time>
      </trkpt>
      <trkpt lat="45.52667" lon="5.1616">
        <ele>458</ele>
        <time>2021-01-11T13:38:26Z</time>
      </trkpt>
      <trkpt lat="45.52643" lon="5.16291">
        <ele>462</ele>
        <time>2021-01-11T13:38:49Z</time>
      </trkpt>
      <trkpt lat="45.52618" lon="5.16397">
        <ele>465</ele>
        <time>2021-01-11T13:39:07Z</time>
      </trkpt>
      <trkpt lat="45.52614" lon="5.16428">
        <ele>465</ele>
        <time>2021-01-11T13:39:12Z</time>
      </trkpt>
      <trkpt lat="45.52613" lon="5.16486">
        <ele>465</ele>
        <time>2021-01-11T13:39:22Z</time>
      </trkpt>
      <trkpt lat="45.52622" lon="5.16554">
        <ele>467</ele>
        <time>2021-01-11T13:39:33Z</time>
      </trkpt>
      <trkpt lat="45.52635" lon="5.16609">
        <ele>469</ele>
        <time>2021-01-11T13:39:42Z</time>
      </trkpt>
      <trkpt lat="45.52699" lon="5.16794">
        <ele>474</ele>
        <time>2021-01-11T13:40:16Z</time>
      </trkpt>
      <trkpt lat="45.52747" lon="5.1685">
        <ele>475</ele>
        <time>2021-01-11T13:40:31Z</time>
      </trkpt>
      <trkpt lat="45.52817" lon="5.16879">
        <ele>476</ele>
        <time>2021-01-11T13:40:48Z</time>
      </trkpt>
      <trkpt lat="45.5285" lon="5.16904">
        <ele>476</ele>
        <time>2021-01-11T13:40:56Z</time>
      </trkpt>
      <trkpt lat="45.52885" lon="5.16941">
        <ele>474</ele>
        <time>2021-01-11T13:41:07Z</time>
      </trkpt>
      <trkpt lat="45.52984" lon="5.17015">
        <ele>468</ele>
        <time>2021-01-11T13:41:33Z</time>
      </trkpt>
      <trkpt lat="45.52924" lon="5.17073">
        <ele>471</ele>
        <time>2021-01-11T13:41:50Z</time>
      </trkpt>
      <trkpt lat="45.529" lon="5.171">
        <ele>473</ele>
        <time>2021-01-11T13:41:57Z</time>
      </trkpt>
      <trkpt lat="45.52849" lon="5.1717">
        <ele>477</ele>
        <time>2021-01-11T13:42:13Z</time>
      </trkpt>
      <trkpt lat="45.52734" lon="5.17305">
        <ele>482</ele>
        <time>2021-01-11T13:42:48Z</time>
      </trkpt>
      <trkpt lat="45.52684" lon="5.17376">
        <ele>486</ele>
        <time>2021-01-11T13:43:04Z</time>
      </trkpt>
      <trkpt lat="45.52643" lon="5.17454">
        <ele>488</ele>
        <time>2021-01-11T13:43:20Z</time>
      </trkpt>
      <trkpt lat="45.52587" lon="5.17568">
        <ele>495</ele>
        <time>2021-01-11T13:43:43Z</time>
      </trkpt>
      <trkpt lat="45.52535" lon="5.17664">
        <ele>496</ele>
        <time>2021-01-11T13:44:03Z</time>
      </trkpt>
      <trkpt lat="45.5249" lon="5.17756">
        <ele>498</ele>
        <time>2021-01-11T13:44:21Z</time>
      </trkpt>
      <trkpt lat="45.52441" lon="5.17823">
        <ele>499</ele>
        <time>2021-01-11T13:44:37Z</time>
      </trkpt>
      <trkpt lat="45.52551" lon="5.17949">
        <ele>502</ele>
        <time>2021-01-11T13:45:10Z</time>
      </trkpt>
      <trkpt lat="45.52569" lon="5.17981">
        <ele>501</ele>
        <time>2021-01-11T13:45:17Z</time>
      </trkpt>
      <trkpt lat="45.52592" lon="5.18008">
        <ele>499</ele>
        <time>2021-01-11T13:45:24Z</time>
      </trkpt>
      <trkpt lat="45.52675" lon="5.18096">
        <ele>494</ele>
        <time>2021-01-11T13:45:48Z</time>
      </trkpt>
      <trkpt lat="45.52655" lon="5.18157">
        <ele>498</ele>
        <time>2021-01-11T13:45:59Z</time>
      </trkpt>
      <trkpt lat="45.52629" lon="5.18221">
        <ele>500</ele>
        <time>2021-01-11T13:46:11Z</time>
      </trkpt>
      <trkpt lat="45.52598" lon="5.18268">
        <ele>501</ele>
        <time>2021-01-11T13:46:22Z</time>
      </trkpt>
      <trkpt lat="45.52573" lon="5.18299">
        <ele>501</ele>
        <time>2021-01-11T13:46:29Z</time>
      </trkpt>
      <trkpt lat="45.52526" lon="5.18316">
        <ele>501</ele>
        <time>2021-01-11T13:46:41Z</time>
      </trkpt>
      <trkpt lat="45.52466" lon="5.1832">
        <ele>500</ele>
        <time>2021-01-11T13:46:55Z</time>
      </trkpt>
      <trkpt lat="45.52384" lon="5.18296">
        <ele>496</ele>
        <time>2021-01-11T13:47:14Z</time>
      </trkpt>
      <trkpt lat="45.52326" lon="5.18296">
        <ele>491</ele>
        <time>2021-01-11T13:47:28Z</time>
      </trkpt>
      <trkpt lat="45.52302" lon="5.18303">
        <ele>492</ele>
        <time>2021-01-11T13:47:34Z</time>
      </trkpt>
      <trkpt lat="45.52283" lon="5.1832">
        <ele>491</ele>
        <time>2021-01-11T13:47:39Z</time>
      </trkpt>
      <trkpt lat="45.52239" lon="5.18372">
        <ele>488</ele>
        <time>2021-01-11T13:47:52Z</time>
      </trkpt>
      <trkpt lat="45.52198" lon="5.18428">
        <ele>483</ele>
        <time>2021-01-11T13:48:05Z</time>
      </trkpt>
      <trkpt lat="45.52156" lon="5.18453">
        <ele>480</ele>
        <time>2021-01-11T13:48:16Z</time>
      </trkpt>
      <trkpt lat="45.52115" lon="5.18461">
        <ele>473</ele>
        <time>2021-01-11T13:48:26Z</time>
      </trkpt>
      <trkpt lat="45.52058" lon="5.18457">
        <ele>466</ele>
        <time>2021-01-11T13:48:39Z</time>
      </trkpt>
      <trkpt lat="45.52055" lon="5.18453">
        <ele>466</ele>
        <time>2021-01-11T13:48:40Z</time>
      </trkpt>
      <trkpt lat="45.52058" lon="5.18457">
        <ele>466</ele>
        <time>2021-01-11T13:48:41Z</time>
      </trkpt>
      <trkpt lat="45.52091" lon="5.18514">
        <ele>466</ele>
        <time>2021-01-11T13:48:53Z</time>
      </trkpt>
      <trkpt lat="45.52116" lon="5.18577">
        <ele>474</ele>
        <time>2021-01-11T13:49:05Z</time>
      </trkpt>
      <trkpt lat="45.52118" lon="5.18632">
        <ele>476</ele>
        <time>2021-01-11T13:49:14Z</time>
      </trkpt>
      <trkpt lat="45.52117" lon="5.18705">
        <ele>477</ele>
        <time>2021-01-11T13:49:26Z</time>
      </trkpt>
      <trkpt lat="45.52141" lon="5.18819">
        <ele>476</ele>
        <time>2021-01-11T13:49:45Z</time>
      </trkpt>
      <trkpt lat="45.52161" lon="5.18865">
        <ele>477</ele>
        <time>2021-01-11T13:49:54Z</time>
      </trkpt>
      <trkpt lat="45.52164" lon="5.189">
        <ele>477</ele>
        <time>2021-01-11T13:50:00Z</time>
      </trkpt>
      <trkpt lat="45.52177" lon="5.18938">
        <ele>476</ele>
        <time>2021-01-11T13:50:07Z</time>
      </trkpt>
      <trkpt lat="45.52279" lon="5.19033">
        <ele>475</ele>
        <time>2021-01-11T13:50:35Z</time>
      </trkpt>
      <trkpt lat="45.52387" lon="5.19097">
        <ele>479</ele>
        <time>2021-01-11T13:51:03Z</time>
      </trkpt>
      <trkpt lat="45.5249" lon="5.19145">
        <ele>475</ele>
        <time>2021-01-11T13:51:28Z</time>
      </trkpt>
      <trkpt lat="45.52598" lon="5.19163">
        <ele>471</ele>
        <time>2021-01-11T13:51:53Z</time>
      </trkpt>
      <trkpt lat="45.52632" lon="5.19166">
        <ele>469</ele>
        <time>2021-01-11T13:52:01Z</time>
      </trkpt>
      <trkpt lat="45.52627" lon="5.19295">
        <ele>464</ele>
        <time>2021-01-11T13:52:22Z</time>
      </trkpt>
      <trkpt lat="45.52634" lon="5.19422">
        <ele>467</ele>
        <time>2021-01-11T13:52:43Z</time>
      </trkpt>
      <trkpt lat="45.52644" lon="5.19522">
        <ele>472</ele>
        <time>2021-01-11T13:53:00Z</time>
      </trkpt>
      <trkpt lat="45.52625" lon="5.19591">
        <ele>476</ele>
        <time>2021-01-11T13:53:12Z</time>
      </trkpt>
      <trkpt lat="45.52614" lon="5.19654">
        <ele>478</ele>
        <time>2021-01-11T13:53:23Z</time>
      </trkpt>
      <trkpt lat="45.52612" lon="5.19687">
        <ele>481</ele>
        <time>2021-01-11T13:53:28Z</time>
      </trkpt>
      <trkpt lat="45.52613" lon="5.19716">
        <ele>485</ele>
        <time>2021-01-11T13:53:33Z</time>
      </trkpt>
      <trkpt lat="45.52618" lon="5.1975">
        <ele>489</ele>
        <time>2021-01-11T13:53:38Z</time>
      </trkpt>
      <trkpt lat="45.52619" lon="5.19858">
        <ele>493</ele>
        <time>2021-01-11T13:53:56Z</time>
      </trkpt>
      <trkpt lat="45.52597" lon="5.19923">
        <ele>496</ele>
        <time>2021-01-11T13:54:08Z</time>
      </trkpt>
      <trkpt lat="45.52562" lon="5.20007">
        <ele>495</ele>
        <time>2021-01-11T13:54:24Z</time>
      </trkpt>
      <trkpt lat="45.52546" lon="5.20026">
        <ele>494</ele>
        <time>2021-01-11T13:54:29Z</time>
      </trkpt>
      <trkpt lat="45.52521" lon="5.20048">
        <ele>493</ele>
        <time>2021-01-11T13:54:36Z</time>
      </trkpt>
      <trkpt lat="45.52497" lon="5.20118">
        <ele>491</ele>
        <time>2021-01-11T13:54:48Z</time>
      </trkpt>
      <trkpt lat="45.52467" lon="5.20183">
        <ele>492</ele>
        <time>2021-01-11T13:55:01Z</time>
      </trkpt>
      <trkpt lat="45.52446" lon="5.20236">
        <ele>494</ele>
        <time>2021-01-11T13:55:11Z</time>
      </trkpt>
      <trkpt lat="45.5241" lon="5.20345">
        <ele>499</ele>
        <time>2021-01-11T13:55:31Z</time>
      </trkpt>
      <trkpt lat="45.52391" lon="5.20367">
        <ele>499</ele>
        <time>2021-01-11T13:55:36Z</time>
      </trkpt>
      <trkpt lat="45.52366" lon="5.2039">
        <ele>497</ele>
        <time>2021-01-11T13:55:43Z</time>
      </trkpt>
      <trkpt lat="45.52278" lon="5.20497">
        <ele>492</ele>
        <time>2021-01-11T13:56:10Z</time>
      </trkpt>
      <trkpt lat="45.52198" lon="5.20544">
        <ele>489</ele>
        <time>2021-01-11T13:56:31Z</time>
      </trkpt>
      <trkpt lat="45.52169" lon="5.20586">
        <ele>488</ele>
        <time>2021-01-11T13:56:40Z</time>
      </trkpt>
      <trkpt lat="45.52144" lon="5.20645">
        <ele>484</ele>
        <time>2021-01-11T13:56:52Z</time>
      </trkpt>
      <trkpt lat="45.52145" lon="5.20672">
        <ele>483</ele>
        <time>2021-01-11T13:56:56Z</time>
      </trkpt>
      <trkpt lat="45.52193" lon="5.20741">
        <ele>483</ele>
        <time>2021-01-11T13:57:12Z</time>
      </trkpt>
      <trkpt lat="45.52202" lon="5.20763">
        <ele>483</ele>
        <time>2021-01-11T13:57:16Z</time>
      </trkpt>
      <trkpt lat="45.52199" lon="5.2081">
        <ele>483</ele>
        <time>2021-01-11T13:57:24Z</time>
      </trkpt>
      <trkpt lat="45.52212" lon="5.20862">
        <ele>483</ele>
        <time>2021-01-11T13:57:33Z</time>
      </trkpt>
      <trkpt lat="45.52252" lon="5.20885">
        <ele>484</ele>
        <time>2021-01-11T13:57:43Z</time>
      </trkpt>
      <trkpt lat="45.52273" lon="5.2089">
        <ele>484</ele>
        <time>2021-01-11T13:57:48Z</time>
      </trkpt>
      <trkpt lat="45.52294" lon="5.209">
        <ele>484</ele>
        <time>2021-01-11T13:57:53Z</time>
      </trkpt>
      <trkpt lat="45.52309" lon="5.20916">
        <ele>484</ele>
        <time>2021-01-11T13:57:57Z</time>
      </trkpt>
      <trkpt lat="45.52314" lon="5.20927">
        <ele>484</ele>
        <time>2021-01-11T13:58:00Z</time>
      </trkpt>
      <trkpt lat="45.52323" lon="5.20927">
        <ele>484</ele>
        <time>2021-01-11T13:58:02Z</time>
      </trkpt>
      <trkpt lat="45.52375" lon="5.20974">
        <ele>484</ele>
        <time>2021-01-11T13:58:16Z</time>
      </trkpt>
      <trkpt lat="45.52416" lon="5.20996">
        <ele>486</ele>
        <time>2021-01-11T13:58:26Z</time>
      </trkpt>
      <trkpt lat="45.52453" lon="5.2102">
        <ele>486</ele>
        <time>2021-01-11T13:58:36Z</time>
      </trkpt>
      <trkpt lat="45.52466" lon="5.21025">
        <ele>486</ele>
        <time>2021-01-11T13:58:39Z</time>
      </trkpt>
      <trkpt lat="45.52482" lon="5.21026">
        <ele>487</ele>
        <time>2021-01-11T13:58:43Z</time>
      </trkpt>
      <trkpt lat="45.5249" lon="5.21024">
        <ele>487</ele>
        <time>2021-01-11T13:58:44Z</time>
      </trkpt>
      <trkpt lat="45.52551" lon="5.20982">
        <ele>490</ele>
        <time>2021-01-11T13:59:00Z</time>
      </trkpt>
      <trkpt lat="45.52613" lon="5.20933">
        <ele>493</ele>
        <time>2021-01-11T13:59:17Z</time>
      </trkpt>
      <trkpt lat="45.5267" lon="5.20875">
        <ele>489</ele>
        <time>2021-01-11T13:59:33Z</time>
      </trkpt>
      <trkpt lat="45.52681" lon="5.209">
        <ele>488</ele>
        <time>2021-01-11T13:59:38Z</time>
      </trkpt>
      <trkpt lat="45.527" lon="5.20951">
        <ele>489</ele>
        <time>2021-01-11T13:59:47Z</time>
      </trkpt>
      <trkpt lat="45.52737" lon="5.21007">
        <ele>490</ele>
        <time>2021-01-11T14:00:00Z</time>
      </trkpt>
      <trkpt lat="45.52768" lon="5.21072">
        <ele>489</ele>
        <time>2021-01-11T14:00:13Z</time>
      </trkpt>
      <trkpt lat="45.52784" lon="5.21099">
        <ele>488</ele>
        <time>2021-01-11T14:00:19Z</time>
      </trkpt>
      <trkpt lat="45.52833" lon="5.21159">
        <ele>490</ele>
        <time>2021-01-11T14:00:34Z</time>
      </trkpt>
      <trkpt lat="45.52869" lon="5.21217">
        <ele>488</ele>
        <time>2021-01-11T14:00:46Z</time>
      </trkpt>
      <trkpt lat="45.529" lon="5.21263">
        <ele>488</ele>
        <time>2021-01-11T14:00:57Z</time>
      </trkpt>
      <trkpt lat="45.52926" lon="5.21316">
        <ele>488</ele>
        <time>2021-01-11T14:01:07Z</time>
      </trkpt>
      <trkpt lat="45.52998" lon="5.21513">
        <ele>476</ele>
        <time>2021-01-11T14:01:44Z</time>
      </trkpt>
      <trkpt lat="45.5303" lon="5.21576">
        <ele>475</ele>
        <time>2021-01-11T14:01:57Z</time>
      </trkpt>
      <trkpt lat="45.53045" lon="5.21591">
        <ele>475</ele>
        <time>2021-01-11T14:02:01Z</time>
      </trkpt>
      <trkpt lat="45.53058" lon="5.21636">
        <ele>473</ele>
        <time>2021-01-11T14:02:09Z</time>
      </trkpt>
      <trkpt lat="45.53077" lon="5.2168">
        <ele>471</ele>
        <time>2021-01-11T14:02:17Z</time>
      </trkpt>
      <trkpt lat="45.53096" lon="5.21728">
        <ele>469</ele>
        <time>2021-01-11T14:02:26Z</time>
      </trkpt>
      <trkpt lat="45.53112" lon="5.21801">
        <ele>467</ele>
        <time>2021-01-11T14:02:39Z</time>
      </trkpt>
      <trkpt lat="45.53136" lon="5.21844">
        <ele>464</ele>
        <time>2021-01-11T14:02:48Z</time>
      </trkpt>
      <trkpt lat="45.53196" lon="5.21885">
        <ele>459</ele>
        <time>2021-01-11T14:03:03Z</time>
      </trkpt>
      <trkpt lat="45.53218" lon="5.21811">
        <ele>462</ele>
        <time>2021-01-11T14:03:16Z</time>
      </trkpt>
      <trkpt lat="45.53254" lon="5.21718">
        <ele>462</ele>
        <time>2021-01-11T14:03:34Z</time>
      </trkpt>
      <trkpt lat="45.53288" lon="5.21639">
        <ele>459</ele>
        <time>2021-01-11T14:03:49Z</time>
      </trkpt>
      <trkpt lat="45.53307" lon="5.21605">
        <ele>457</ele>
        <time>2021-01-11T14:03:56Z</time>
      </trkpt>
      <trkpt lat="45.53425" lon="5.21425">
        <ele>453</ele>
        <time>2021-01-11T14:04:36Z</time>
      </trkpt>
      <trkpt lat="45.53414" lon="5.21528">
        <ele>457</ele>
        <time>2021-01-11T14:04:54Z</time>
      </trkpt>
      <trkpt lat="45.53411" lon="5.21586">
        <ele>459</ele>
        <time>2021-01-11T14:05:03Z</time>
      </trkpt>
      <trkpt lat="45.53409" lon="5.21681">
        <ele>460</ele>
        <time>2021-01-11T14:05:19Z</time>
      </trkpt>
      <trkpt lat="45.53403" lon="5.21776">
        <ele>460</ele>
        <time>2021-01-11T14:05:34Z</time>
      </trkpt>
      <trkpt lat="45.5341" lon="5.21859">
        <ele>460</ele>
        <time>2021-01-11T14:05:48Z</time>
      </trkpt>
      <trkpt lat="45.53421" lon="5.21967">
        <ele>459</ele>
        <time>2021-01-11T14:06:06Z</time>
      </trkpt>
      <trkpt lat="45.53425" lon="5.2203">
        <ele>457</ele>
        <time>2021-01-11T14:06:16Z</time>
      </trkpt>
      <trkpt lat="45.53414" lon="5.22151">
        <ele>458</ele>
        <time>2021-01-11T14:06:36Z</time>
      </trkpt>
      <trkpt lat="45.53414" lon="5.22269">
        <ele>460</ele>
        <time>2021-01-11T14:06:55Z</time>
      </trkpt>
      <trkpt lat="45.53453" lon="5.22444">
        <ele>459</ele>
        <time>2021-01-11T14:07:25Z</time>
      </trkpt>
      <trkpt lat="45.53491" lon="5.22573">
        <ele>460</ele>
        <time>2021-01-11T14:07:48Z</time>
      </trkpt>
      <trkpt lat="45.53465" lon="5.22586">
        <ele>462</ele>
        <time>2021-01-11T14:07:55Z</time>
      </trkpt>
      <trkpt lat="45.53407" lon="5.2256">
        <ele>463</ele>
        <time>2021-01-11T14:08:09Z</time>
      </trkpt>
      <trkpt lat="45.53386" lon="5.22561">
        <ele>464</ele>
        <time>2021-01-11T14:08:14Z</time>
      </trkpt>
      <trkpt lat="45.53308" lon="5.22592">
        <ele>466</ele>
        <time>2021-01-11T14:08:33Z</time>
      </trkpt>
      <trkpt lat="45.53169" lon="5.22656">
        <ele>466</ele>
        <time>2021-01-11T14:09:07Z</time>
      </trkpt>
      <trkpt lat="45.5302" lon="5.22654">
        <ele>464</ele>
        <time>2021-01-11T14:09:42Z</time>
      </trkpt>
      <trkpt lat="45.52918" lon="5.22602">
        <ele>464</ele>
        <time>2021-01-11T14:10:07Z</time>
      </trkpt>
      <trkpt lat="45.52854" lon="5.22562">
        <ele>462</ele>
        <time>2021-01-11T14:10:23Z</time>
      </trkpt>
      <trkpt lat="45.52814" lon="5.22613">
        <ele>458</ele>
        <time>2021-01-11T14:10:36Z</time>
      </trkpt>
      <trkpt lat="45.5276" lon="5.22622">
        <ele>461</ele>
        <time>2021-01-11T14:10:48Z</time>
      </trkpt>
      <trkpt lat="45.52562" lon="5.226">
        <ele>468</ele>
        <time>2021-01-11T14:11:35Z</time>
      </trkpt>
      <trkpt lat="45.52544" lon="5.2269">
        <ele>471</ele>
        <time>2021-01-11T14:11:50Z</time>
      </trkpt>
      <trkpt lat="45.52529" lon="5.22746">
        <ele>476</ele>
        <time>2021-01-11T14:12:00Z</time>
      </trkpt>
      <trkpt lat="45.52459" lon="5.22628">
        <ele>475</ele>
        <time>2021-01-11T14:12:25Z</time>
      </trkpt>
      <trkpt lat="45.52342" lon="5.22342">
        <ele>473</ele>
        <time>2021-01-11T14:13:19Z</time>
      </trkpt>
      <trkpt lat="45.52294" lon="5.22231">
        <ele>475</ele>
        <time>2021-01-11T14:13:41Z</time>
      </trkpt>
      <trkpt lat="45.52237" lon="5.22115">
        <ele>471</ele>
        <time>2021-01-11T14:14:04Z</time>
      </trkpt>
      <trkpt lat="45.52177" lon="5.22016">
        <ele>469</ele>
        <time>2021-01-11T14:14:25Z</time>
      </trkpt>
      <trkpt lat="45.52104" lon="5.21918">
        <ele>467</ele>
        <time>2021-01-11T14:14:49Z</time>
      </trkpt>
      <trkpt lat="45.52034" lon="5.21868">
        <ele>466</ele>
        <time>2021-01-11T14:15:07Z</time>
      </trkpt>
      <trkpt lat="45.51975" lon="5.21835">
        <ele>464</ele>
        <time>2021-01-11T14:15:22Z</time>
      </trkpt>
      <trkpt lat="45.5192" lon="5.21826">
        <ele>462</ele>
        <time>2021-01-11T14:15:35Z</time>
      </trkpt>
      <trkpt lat="45.51877" lon="5.21816">
        <ele>462</ele>
        <time>2021-01-11T14:15:45Z</time>
      </trkpt>
      <trkpt lat="45.51833" lon="5.21827">
        <ele>462</ele>
        <time>2021-01-11T14:15:55Z</time>
      </trkpt>
      <trkpt lat="45.51813" lon="5.218">
        <ele>461</ele>
        <time>2021-01-11T14:16:02Z</time>
      </trkpt>
      <trkpt lat="45.51786" lon="5.21771">
        <ele>461</ele>
        <time>2021-01-11T14:16:10Z</time>
      </trkpt>
      <trkpt lat="45.51743" lon="5.21718">
        <ele>459</ele>
        <time>2021-01-11T14:16:23Z</time>
      </trkpt>
      <trkpt lat="45.51709" lon="5.21686">
        <ele>458</ele>
        <time>2021-01-11T14:16:32Z</time>
      </trkpt>
      <trkpt lat="45.51651" lon="5.21613">
        <ele>455</ele>
        <time>2021-01-11T14:16:51Z</time>
      </trkpt>
      <trkpt lat="45.5161" lon="5.21529">
        <ele>450</ele>
        <time>2021-01-11T14:17:07Z</time>
      </trkpt>
      <trkpt lat="45.516" lon="5.21494">
        <ele>448</ele>
        <time>2021-01-11T14:17:13Z</time>
      </trkpt>
      <trkpt lat="45.51583" lon="5.2148">
        <ele>446</ele>
        <time>2021-01-11T14:17:18Z</time>
      </trkpt>
      <trkpt lat="45.51512" lon="5.21442">
        <ele>445</ele>
        <time>2021-01-11T14:17:36Z</time>
      </trkpt>
      <trkpt lat="45.5146" lon="5.214">
        <ele>446</ele>
        <time>2021-01-11T14:17:50Z</time>
      </trkpt>
      <trkpt lat="45.51373" lon="5.21383">
        <ele>455</ele>
        <time>2021-01-11T14:18:10Z</time>
      </trkpt>
      <trkpt lat="45.51356" lon="5.21376">
        <ele>457</ele>
        <time>2021-01-11T14:18:14Z</time>
      </trkpt>
      <trkpt lat="45.51318" lon="5.21326">
        <ele>459</ele>
        <time>2021-01-11T14:18:26Z</time>
      </trkpt>
      <trkpt lat="45.51291" lon="5.21266">
        <ele>460</ele>
        <time>2021-01-11T14:18:38Z</time>
      </trkpt>
      <trkpt lat="45.51262" lon="5.21236">
        <ele>460</ele>
        <time>2021-01-11T14:18:46Z</time>
      </trkpt>
      <trkpt lat="45.51231" lon="5.21218">
        <ele>461</ele>
        <time>2021-01-11T14:18:54Z</time>
      </trkpt>
      <trkpt lat="45.51199" lon="5.21213">
        <ele>461</ele>
        <time>2021-01-11T14:19:02Z</time>
      </trkpt>
      <trkpt lat="45.51158" lon="5.21211">
        <ele>461</ele>
        <time>2021-01-11T14:19:11Z</time>
      </trkpt>
      <trkpt lat="45.5109" lon="5.21193">
        <ele>459</ele>
        <time>2021-01-11T14:19:28Z</time>
      </trkpt>
      <trkpt lat="45.51049" lon="5.21191">
        <ele>458</ele>
        <time>2021-01-11T14:19:37Z</time>
      </trkpt>
      <trkpt lat="45.50972" lon="5.2118">
        <ele>456</ele>
        <time>2021-01-11T14:19:55Z</time>
      </trkpt>
      <trkpt lat="45.51006" lon="5.20954">
        <ele>452</ele>
        <time>2021-01-11T14:20:33Z</time>
      </trkpt>
      <trkpt lat="45.51005" lon="5.20895">
        <ele>451</ele>
        <time>2021-01-11T14:20:43Z</time>
      </trkpt>
      <trkpt lat="45.50984" lon="5.20802">
        <ele>448</ele>
        <time>2021-01-11T14:20:59Z</time>
      </trkpt>
      <trkpt lat="45.50989" lon="5.20752">
        <ele>445</ele>
        <time>2021-01-11T14:21:07Z</time>
      </trkpt>
      <trkpt lat="45.51008" lon="5.20665">
        <ele>441</ele>
        <time>2021-01-11T14:21:22Z</time>
      </trkpt>
      <trkpt lat="45.51022" lon="5.20638">
        <ele>440</ele>
        <time>2021-01-11T14:21:27Z</time>
      </trkpt>
      <trkpt lat="45.51024" lon="5.20618">
        <ele>439</ele>
        <time>2021-01-11T14:21:31Z</time>
      </trkpt>
      <trkpt lat="45.51019" lon="5.20598">
        <ele>438</ele>
        <time>2021-01-11T14:21:34Z</time>
      </trkpt>
      <trkpt lat="45.50992" lon="5.20624">
        <ele>438</ele>
        <time>2021-01-11T14:21:42Z</time>
      </trkpt>
      <trkpt lat="45.50968" lon="5.20637">
        <ele>438</ele>
        <time>2021-01-11T14:21:48Z</time>
      </trkpt>
      <trkpt lat="45.50948" lon="5.20644">
        <ele>438</ele>
        <time>2021-01-11T14:21:53Z</time>
      </trkpt>
      <trkpt lat="45.50898" lon="5.20655">
        <ele>436</ele>
        <time>2021-01-11T14:22:04Z</time>
      </trkpt>
      <trkpt lat="45.50877" lon="5.20666">
        <ele>435</ele>
        <time>2021-01-11T14:22:10Z</time>
      </trkpt>
      <trkpt lat="45.50844" lon="5.20686">
        <ele>433</ele>
        <time>2021-01-11T14:22:18Z</time>
      </trkpt>
      <trkpt lat="45.50821" lon="5.20708">
        <ele>432</ele>
        <time>2021-01-11T14:22:24Z</time>
      </trkpt>
      <trkpt lat="45.50809" lon="5.20741">
        <ele>432</ele>
        <time>2021-01-11T14:22:31Z</time>
      </trkpt>
      <trkpt lat="45.50771" lon="5.20911">
        <ele>432</ele>
        <time>2021-01-11T14:23:00Z</time>
      </trkpt>
      <trkpt lat="45.50755" lon="5.21022">
        <ele>430</ele>
        <time>2021-01-11T14:23:18Z</time>
      </trkpt>
      <trkpt lat="45.50736" lon="5.21056">
        <ele>431</ele>
        <time>2021-01-11T14:23:25Z</time>
      </trkpt>
      <trkpt lat="45.507" lon="5.21105">
        <ele>433</ele>
        <time>2021-01-11T14:23:37Z</time>
      </trkpt>
      <trkpt lat="45.50686" lon="5.21117">
        <ele>433</ele>
        <time>2021-01-11T14:23:41Z</time>
      </trkpt>
      <trkpt lat="45.50649" lon="5.21142">
        <ele>434</ele>
        <time>2021-01-11T14:23:50Z</time>
      </trkpt>
      <trkpt lat="45.50614" lon="5.21174">
        <ele>436</ele>
        <time>2021-01-11T14:24:00Z</time>
      </trkpt>
      <trkpt lat="45.5056" lon="5.21308">
        <ele>434</ele>
        <time>2021-01-11T14:24:25Z</time>
      </trkpt>
      <trkpt lat="45.50534" lon="5.21234">
        <ele>438</ele>
        <time>2021-01-11T14:24:39Z</time>
      </trkpt>
      <trkpt lat="45.5052" lon="5.21199">
        <ele>440</ele>
        <time>2021-01-11T14:24:46Z</time>
      </trkpt>
      <trkpt lat="45.50493" lon="5.21164">
        <ele>442</ele>
        <time>2021-01-11T14:24:54Z</time>
      </trkpt>
      <trkpt lat="45.50463" lon="5.21132">
        <ele>446</ele>
        <time>2021-01-11T14:25:03Z</time>
      </trkpt>
      <trkpt lat="45.50458" lon="5.21113">
        <ele>447</ele>
        <time>2021-01-11T14:25:06Z</time>
      </trkpt>
      <trkpt lat="45.50455" lon="5.21056">
        <ele>449</ele>
        <time>2021-01-11T14:25:15Z</time>
      </trkpt>
      <trkpt lat="45.50449" lon="5.20994">
        <ele>452</ele>
        <time>2021-01-11T14:25:26Z</time>
      </trkpt>
      <trkpt lat="45.50437" lon="5.20951">
        <ele>454</ele>
        <time>2021-01-11T14:25:33Z</time>
      </trkpt>
      <trkpt lat="45.50346" lon="5.20846">
        <ele>461</ele>
        <time>2021-01-11T14:26:01Z</time>
      </trkpt>
      <trkpt lat="45.50341" lon="5.20794">
        <ele>460</ele>
        <time>2021-01-11T14:26:09Z</time>
      </trkpt>
      <trkpt lat="45.50293" lon="5.20603">
        <ele>461</ele>
        <time>2021-01-11T14:26:42Z</time>
      </trkpt>
      <trkpt lat="45.50245" lon="5.20489">
        <ele>462</ele>
        <time>2021-01-11T14:27:04Z</time>
      </trkpt>
      <trkpt lat="45.50177" lon="5.20334">
        <ele>462</ele>
        <time>2021-01-11T14:27:34Z</time>
      </trkpt>
      <trkpt lat="45.50119" lon="5.20237">
        <ele>462</ele>
        <time>2021-01-11T14:27:55Z</time>
      </trkpt>
      <trkpt lat="45.50107" lon="5.20206">
        <ele>461</ele>
        <time>2021-01-11T14:28:01Z</time>
      </trkpt>
      <trkpt lat="45.50092" lon="5.20179">
        <ele>460</ele>
        <time>2021-01-11T14:28:06Z</time>
      </trkpt>
      <trkpt lat="45.50063" lon="5.20134">
        <ele>458</ele>
        <time>2021-01-11T14:28:16Z</time>
      </trkpt>
      <trkpt lat="45.5004" lon="5.20073">
        <ele>458</ele>
        <time>2021-01-11T14:28:28Z</time>
      </trkpt>
      <trkpt lat="45.49997" lon="5.19925">
        <ele>458</ele>
        <time>2021-01-11T14:28:54Z</time>
      </trkpt>
      <trkpt lat="45.49966" lon="5.19847">
        <ele>456</ele>
        <time>2021-01-11T14:29:09Z</time>
      </trkpt>
      <trkpt lat="45.49942" lon="5.19801">
        <ele>455</ele>
        <time>2021-01-11T14:29:18Z</time>
      </trkpt>
      <trkpt lat="45.49891" lon="5.19709">
        <ele>452</ele>
        <time>2021-01-11T14:29:37Z</time>
      </trkpt>
      <trkpt lat="45.49866" lon="5.19679">
        <ele>451</ele>
        <time>2021-01-11T14:29:45Z</time>
      </trkpt>
      <trkpt lat="45.49752" lon="5.19556">
        <ele>449</ele>
        <time>2021-01-11T14:30:18Z</time>
      </trkpt>
      <trkpt lat="45.49705" lon="5.19502">
        <ele>447</ele>
        <time>2021-01-11T14:30:32Z</time>
      </trkpt>
      <trkpt lat="45.49663" lon="5.19447">
        <ele>447</ele>
        <time>2021-01-11T14:30:46Z</time>
      </trkpt>
      <trkpt lat="45.49582" lon="5.19338">
        <ele>445</ele>
        <time>2021-01-11T14:31:12Z</time>
      </trkpt>
      <trkpt lat="45.49562" lon="5.19304">
        <ele>444</ele>
        <time>2021-01-11T14:31:19Z</time>
      </trkpt>
      <trkpt lat="45.49494" lon="5.19173">
        <ele>443</ele>
        <time>2021-01-11T14:31:46Z</time>
      </trkpt>
      <trkpt lat="45.49471" lon="5.19141">
        <ele>442</ele>
        <time>2021-01-11T14:31:53Z</time>
      </trkpt>
      <trkpt lat="45.49446" lon="5.19115">
        <ele>441</ele>
        <time>2021-01-11T14:32:00Z</time>
      </trkpt>
      <trkpt lat="45.49432" lon="5.19103">
        <ele>441</ele>
        <time>2021-01-11T14:32:04Z</time>
      </trkpt>
      <trkpt lat="45.49386" lon="5.19073">
        <ele>440</ele>
        <time>2021-01-11T14:32:16Z</time>
      </trkpt>
      <trkpt lat="45.49301" lon="5.19022">
        <ele>441</ele>
        <time>2021-01-11T14:32:37Z</time>
      </trkpt>
      <trkpt lat="45.49281" lon="5.19001">
        <ele>441</ele>
        <time>2021-01-11T14:32:43Z</time>
      </trkpt>
      <trkpt lat="45.49251" lon="5.18961">
        <ele>442</ele>
        <time>2021-01-11T14:32:53Z</time>
      </trkpt>
      <trkpt lat="45.49228" lon="5.18939">
        <ele>442</ele>
        <time>2021-01-11T14:32:59Z</time>
      </trkpt>
      <trkpt lat="45.49192" lon="5.18911">
        <ele>440</ele>
        <time>2021-01-11T14:33:09Z</time>
      </trkpt>
      <trkpt lat="45.49166" lon="5.18896">
        <ele>440</ele>
        <time>2021-01-11T14:33:15Z</time>
      </trkpt>
      <trkpt lat="45.49106" lon="5.18886">
        <ele>437</ele>
        <time>2021-01-11T14:33:30Z</time>
      </trkpt>
      <trkpt lat="45.49078" lon="5.18873">
        <ele>436</ele>
        <time>2021-01-11T14:33:36Z</time>
      </trkpt>
      <trkpt lat="45.49053" lon="5.18855">
        <ele>436</ele>
        <time>2021-01-11T14:33:43Z</time>
      </trkpt>
      <trkpt lat="45.48983" lon="5.18791">
        <ele>434</ele>
        <time>2021-01-11T14:34:02Z</time>
      </trkpt>
      <trkpt lat="45.48918" lon="5.18755">
        <ele>434</ele>
        <time>2021-01-11T14:34:19Z</time>
      </trkpt>
      <trkpt lat="45.48907" lon="5.18752">
        <ele>436</ele>
        <time>2021-01-11T14:34:21Z</time>
      </trkpt>
      <trkpt lat="45.48896" lon="5.18722">
        <ele>436</ele>
        <time>2021-01-11T14:34:27Z</time>
      </trkpt>
      <trkpt lat="45.48885" lon="5.18682">
        <ele>436</ele>
        <time>2021-01-11T14:34:34Z</time>
      </trkpt>
      <trkpt lat="45.48871" lon="5.18618">
        <ele>434</ele>
        <time>2021-01-11T14:34:45Z</time>
      </trkpt>
      <trkpt lat="45.48842" lon="5.18506">
        <ele>431</ele>
        <time>2021-01-11T14:35:04Z</time>
      </trkpt>
      <trkpt lat="45.48813" lon="5.18369">
        <ele>429</ele>
        <time>2021-01-11T14:35:28Z</time>
      </trkpt>
      <trkpt lat="45.48796" lon="5.18311">
        <ele>429</ele>
        <time>2021-01-11T14:35:38Z</time>
      </trkpt>
      <trkpt lat="45.48775" lon="5.18271">
        <ele>428</ele>
        <time>2021-01-11T14:35:46Z</time>
      </trkpt>
      <trkpt lat="45.48762" lon="5.18231">
        <ele>429</ele>
        <time>2021-01-11T14:35:54Z</time>
      </trkpt>
      <trkpt lat="45.48767" lon="5.1819">
        <ele>431</ele>
        <time>2021-01-11T14:36:00Z</time>
      </trkpt>
      <trkpt lat="45.48772" lon="5.1799">
        <ele>426</ele>
        <time>2021-01-11T14:36:33Z</time>
      </trkpt>
      <trkpt lat="45.48769" lon="5.17924">
        <ele>425</ele>
        <time>2021-01-11T14:36:44Z</time>
      </trkpt>
      <trkpt lat="45.48763" lon="5.17856">
        <ele>424</ele>
        <time>2021-01-11T14:36:55Z</time>
      </trkpt>
      <trkpt lat="45.48763" lon="5.17831">
        <ele>423</ele>
        <time>2021-01-11T14:36:59Z</time>
      </trkpt>
      <trkpt lat="45.48752" lon="5.17799">
        <ele>422</ele>
        <time>2021-01-11T14:37:05Z</time>
      </trkpt>
      <trkpt lat="45.48763" lon="5.17831">
        <ele>423</ele>
        <time>2021-01-11T14:37:11Z</time>
      </trkpt>
      <trkpt lat="45.48821" lon="5.1782">
        <ele>423</ele>
        <time>2021-01-11T14:37:25Z</time>
      </trkpt>
      <trkpt lat="45.48882" lon="5.17788">
        <ele>421</ele>
        <time>2021-01-11T14:37:40Z</time>
      </trkpt>
      <trkpt lat="45.48938" lon="5.17715">
        <ele>420</ele>
        <time>2021-01-11T14:37:57Z</time>
      </trkpt>
      <trkpt lat="45.48959" lon="5.17697">
        <ele>420</ele>
        <time>2021-01-11T14:38:03Z</time>
      </trkpt>
      <trkpt lat="45.48971" lon="5.17582">
        <ele>420</ele>
        <time>2021-01-11T14:38:22Z</time>
      </trkpt>
      <trkpt lat="45.48988" lon="5.17502">
        <ele>421</ele>
        <time>2021-01-11T14:38:36Z</time>
      </trkpt>
      <trkpt lat="45.4901" lon="5.17417">
        <ele>419</ele>
        <time>2021-01-11T14:38:51Z</time>
      </trkpt>
      <trkpt lat="45.49018" lon="5.17341">
        <ele>417</ele>
        <time>2021-01-11T14:39:03Z</time>
      </trkpt>
      <trkpt lat="45.49031" lon="5.17136">
        <ele>413</ele>
        <time>2021-01-11T14:39:37Z</time>
      </trkpt>
      <trkpt lat="45.49045" lon="5.17142">
        <ele>413</ele>
        <time>2021-01-11T14:39:40Z</time>
      </trkpt>
      <trkpt lat="45.49087" lon="5.17139">
        <ele>414</ele>
        <time>2021-01-11T14:39:50Z</time>
      </trkpt>
      <trkpt lat="45.491" lon="5.17142">
        <ele>414</ele>
        <time>2021-01-11T14:39:53Z</time>
      </trkpt>
      <trkpt lat="45.49119" lon="5.17163">
        <ele>415</ele>
        <time>2021-01-11T14:39:59Z</time>
      </trkpt>
      <trkpt lat="45.49134" lon="5.17191">
        <ele>416</ele>
        <time>2021-01-11T14:40:05Z</time>
      </trkpt>
      <trkpt lat="45.49187" lon="5.17301">
        <ele>418</ele>
        <time>2021-01-11T14:40:27Z</time>
      </trkpt>
      <trkpt lat="45.49229" lon="5.17378">
        <ele>419</ele>
        <time>2021-01-11T14:40:43Z</time>
      </trkpt>
      <trkpt lat="45.49243" lon="5.17454">
        <ele>419</ele>
        <time>2021-01-11T14:40:55Z</time>
      </trkpt>
      <trkpt lat="45.49279" lon="5.17428">
        <ele>422</ele>
        <time>2021-01-11T14:41:05Z</time>
      </trkpt>
      <trkpt lat="45.493" lon="5.17418">
        <ele>426</ele>
        <time>2021-01-11T14:41:10Z</time>
      </trkpt>
      <trkpt lat="45.49317" lon="5.17408">
        <ele>429</ele>
        <time>2021-01-11T14:41:14Z</time>
      </trkpt>
      <trkpt lat="45.49321" lon="5.17369">
        <ele>434</ele>
        <time>2021-01-11T14:41:21Z</time>
      </trkpt>
      <trkpt lat="45.49276" lon="5.17174">
        <ele>439</ele>
        <time>2021-01-11T14:41:54Z</time>
      </trkpt>
      <trkpt lat="45.49268" lon="5.17091">
        <ele>443</ele>
        <time>2021-01-11T14:42:08Z</time>
      </trkpt>
      <trkpt lat="45.49269" lon="5.1708">
        <ele>444</ele>
        <time>2021-01-11T14:42:10Z</time>
      </trkpt>
      <trkpt lat="45.49242" lon="5.16958">
        <ele>447</ele>
        <time>2021-01-11T14:42:31Z</time>
      </trkpt>
      <trkpt lat="45.49237" lon="5.16918">
        <ele>447</ele>
        <time>2021-01-11T14:42:37Z</time>
      </trkpt>
      <trkpt lat="45.49228" lon="5.16871">
        <ele>449</ele>
        <time>2021-01-11T14:42:45Z</time>
      </trkpt>
      <trkpt lat="45.49217" lon="5.16825">
        <ele>450</ele>
        <time>2021-01-11T14:42:53Z</time>
      </trkpt>
      <trkpt lat="45.49193" lon="5.16753">
        <ele>452</ele>
        <time>2021-01-11T14:43:06Z</time>
      </trkpt>
      <trkpt lat="45.49182" lon="5.16709">
        <ele>454</ele>
        <time>2021-01-11T14:43:14Z</time>
      </trkpt>
      <trkpt lat="45.49166" lon="5.16628">
        <ele>458</ele>
        <time>2021-01-11T14:43:28Z</time>
      </trkpt>
      <trkpt lat="45.49156" lon="5.16586">
        <ele>457</ele>
        <time>2021-01-11T14:43:35Z</time>
      </trkpt>
      <trkpt lat="45.49153" lon="5.16557">
        <ele>456</ele>
        <time>2021-01-11T14:43:40Z</time>
      </trkpt>
      <trkpt lat="45.49152" lon="5.16488">
        <ele>456</ele>
        <time>2021-01-11T14:43:51Z</time>
      </trkpt>
      <trkpt lat="45.49143" lon="5.16408">
        <ele>454</ele>
        <time>2021-01-11T14:44:05Z</time>
      </trkpt>
      <trkpt lat="45.49142" lon="5.1637">
        <ele>452</ele>
        <time>2021-01-11T14:44:11Z</time>
      </trkpt>
      <trkpt lat="45.49144" lon="5.16346">
        <ele>452</ele>
        <time>2021-01-11T14:44:15Z</time>
      </trkpt>
      <trkpt lat="45.4915" lon="5.16318">
        <ele>451</ele>
        <time>2021-01-11T14:44:20Z</time>
      </trkpt>
      <trkpt lat="45.49158" lon="5.16295">
        <ele>452</ele>
        <time>2021-01-11T14:44:24Z</time>
      </trkpt>
      <trkpt lat="45.4917" lon="5.16271">
        <ele>452</ele>
        <time>2021-01-11T14:44:29Z</time>
      </trkpt>
      <trkpt lat="45.49184" lon="5.16252">
        <ele>451</ele>
        <time>2021-01-11T14:44:33Z</time>
      </trkpt>
      <trkpt lat="45.49196" lon="5.1624">
        <ele>452</ele>
        <time>2021-01-11T14:44:36Z</time>
      </trkpt>
      <trkpt lat="45.49207" lon="5.16223">
        <ele>452</ele>
        <time>2021-01-11T14:44:40Z</time>
      </trkpt>
      <trkpt lat="45.49213" lon="5.16209">
        <ele>452</ele>
        <time>2021-01-11T14:44:43Z</time>
      </trkpt>
      <trkpt lat="45.49215" lon="5.16191">
        <ele>452</ele>
        <time>2021-01-11T14:44:46Z</time>
      </trkpt>
      <trkpt lat="45.49209" lon="5.16117">
        <ele>448</ele>
        <time>2021-01-11T14:44:58Z</time>
      </trkpt>
      <trkpt lat="45.49211" lon="5.16101">
        <ele>448</ele>
        <time>2021-01-11T14:45:01Z</time>
      </trkpt>
      <trkpt lat="45.49219" lon="5.16091">
        <ele>449</ele>
        <time>2021-01-11T14:45:03Z</time>
      </trkpt>
      <trkpt lat="45.49265" lon="5.16058">
        <ele>453</ele>
        <time>2021-01-11T14:45:15Z</time>
      </trkpt>
      <trkpt lat="45.49273" lon="5.16045">
        <ele>452</ele>
        <time>2021-01-11T14:45:18Z</time>
      </trkpt>
      <trkpt lat="45.4928" lon="5.16025">
        <ele>452</ele>
        <time>2021-01-11T14:45:22Z</time>
      </trkpt>
      <trkpt lat="45.49286" lon="5.16002">
        <ele>452</ele>
        <time>2021-01-11T14:45:26Z</time>
      </trkpt>
      <trkpt lat="45.49288" lon="5.15981">
        <ele>450</ele>
        <time>2021-01-11T14:45:29Z</time>
      </trkpt>
      <trkpt lat="45.49301" lon="5.15931">
        <ele>449</ele>
        <time>2021-01-11T14:45:38Z</time>
      </trkpt>
      <trkpt lat="45.49327" lon="5.15823">
        <ele>447</ele>
        <time>2021-01-11T14:45:57Z</time>
      </trkpt>
      <trkpt lat="45.49341" lon="5.15781">
        <ele>445</ele>
        <time>2021-01-11T14:46:04Z</time>
      </trkpt>
      <trkpt lat="45.49349" lon="5.1575">
        <ele>443</ele>
        <time>2021-01-11T14:46:10Z</time>
      </trkpt>
      <trkpt lat="45.49356" lon="5.1571">
        <ele>439</ele>
        <time>2021-01-11T14:46:16Z</time>
      </trkpt>
      <trkpt lat="45.49373" lon="5.1564">
        <ele>434</ele>
        <time>2021-01-11T14:46:29Z</time>
      </trkpt>
      <trkpt lat="45.49377" lon="5.15602">
        <ele>432</ele>
        <time>2021-01-11T14:46:35Z</time>
      </trkpt>
      <trkpt lat="45.49379" lon="5.15532">
        <ele>425</ele>
        <time>2021-01-11T14:46:46Z</time>
      </trkpt>
      <trkpt lat="45.49407" lon="5.15294">
        <ele>411</ele>
        <time>2021-01-11T14:47:26Z</time>
      </trkpt>
      <trkpt lat="45.49399" lon="5.15295">
        <ele>410</ele>
        <time>2021-01-11T14:47:28Z</time>
      </trkpt>
      <trkpt lat="45.49355" lon="5.15328">
        <ele>405</ele>
        <time>2021-01-11T14:47:39Z</time>
      </trkpt>
      <trkpt lat="45.49317" lon="5.15372">
        <ele>404</ele>
        <time>2021-01-11T14:47:51Z</time>
      </trkpt>
      <trkpt lat="45.49281" lon="5.15438">
        <ele>402</ele>
        <time>2021-01-11T14:48:04Z</time>
      </trkpt>
      <trkpt lat="45.49259" lon="5.15456">
        <ele>399</ele>
        <time>2021-01-11T14:48:10Z</time>
      </trkpt>
      <trkpt lat="45.49252" lon="5.15353">
        <ele>396</ele>
        <time>2021-01-11T14:48:27Z</time>
      </trkpt>
      <trkpt lat="45.4926" lon="5.15287">
        <ele>395</ele>
        <time>2021-01-11T14:48:38Z</time>
      </trkpt>
      <trkpt lat="45.49304" lon="5.15142">
        <ele>394</ele>
        <time>2021-01-11T14:49:04Z</time>
      </trkpt>
      <trkpt lat="45.49314" lon="5.15072">
        <ele>393</ele>
        <time>2021-01-11T14:49:16Z</time>
      </trkpt>
      <trkpt lat="45.49334" lon="5.14966">
        <ele>392</ele>
        <time>2021-01-11T14:49:34Z</time>
      </trkpt>
      <trkpt lat="45.49335" lon="5.14857">
        <ele>390</ele>
        <time>2021-01-11T14:49:52Z</time>
      </trkpt>
      <trkpt lat="45.49329" lon="5.1478">
        <ele>390</ele>
        <time>2021-01-11T14:50:04Z</time>
      </trkpt>
      <trkpt lat="45.49303" lon="5.14678">
        <ele>387</ele>
        <time>2021-01-11T14:50:22Z</time>
      </trkpt>
      <trkpt lat="45.49287" lon="5.1458">
        <ele>387</ele>
        <time>2021-01-11T14:50:39Z</time>
      </trkpt>
      <trkpt lat="45.49285" lon="5.14534">
        <ele>386</ele>
        <time>2021-01-11T14:50:46Z</time>
      </trkpt>
      <trkpt lat="45.49297" lon="5.14433">
        <ele>384</ele>
        <time>2021-01-11T14:51:03Z</time>
      </trkpt>
      <trkpt lat="45.49311" lon="5.14376">
        <ele>384</ele>
        <time>2021-01-11T14:51:13Z</time>
      </trkpt>
      <trkpt lat="45.49319" lon="5.1431">
        <ele>384</ele>
        <time>2021-01-11T14:51:24Z</time>
      </trkpt>
      <trkpt lat="45.49331" lon="5.1426">
        <ele>383</ele>
        <time>2021-01-11T14:51:32Z</time>
      </trkpt>
      <trkpt lat="45.4933" lon="5.14247">
        <ele>383</ele>
        <time>2021-01-11T14:51:35Z</time>
      </trkpt>
      <trkpt lat="45.49328" lon="5.14243">
        <ele>383</ele>
        <time>2021-01-11T14:51:35Z</time>
      </trkpt>
      <trkpt lat="45.4937" lon="5.14184">
        <ele>384</ele>
        <time>2021-01-11T14:51:49Z</time>
      </trkpt>
      <trkpt lat="45.49433" lon="5.14101">
        <ele>378</ele>
        <time>2021-01-11T14:52:09Z</time>
      </trkpt>
      <trkpt lat="45.4946" lon="5.14079">
        <ele>375</ele>
        <time>2021-01-11T14:52:16Z</time>
      </trkpt>
      <trkpt lat="45.49485" lon="5.14063">
        <ele>374</ele>
        <time>2021-01-11T14:52:23Z</time>
      </trkpt>
      <trkpt lat="45.49511" lon="5.14052">
        <ele>373</ele>
        <time>2021-01-11T14:52:29Z</time>
      </trkpt>
      <trkpt lat="45.49536" lon="5.14049">
        <ele>372</ele>
        <time>2021-01-11T14:52:35Z</time>
      </trkpt>
      <trkpt lat="45.49562" lon="5.14056">
        <ele>372</ele>
        <time>2021-01-11T14:52:41Z</time>
      </trkpt>
      <trkpt lat="45.49586" lon="5.14068">
        <ele>372</ele>
        <time>2021-01-11T14:52:47Z</time>
      </trkpt>
      <trkpt lat="45.49613" lon="5.14085">
        <ele>372</ele>
        <time>2021-01-11T14:52:54Z</time>
      </trkpt>
      <trkpt lat="45.49638" lon="5.14093">
        <ele>371</ele>
        <time>2021-01-11T14:53:00Z</time>
      </trkpt>
      <trkpt lat="45.49651" lon="5.14113">
        <ele>371</ele>
        <time>2021-01-11T14:53:04Z</time>
      </trkpt>
      <trkpt lat="45.49662" lon="5.14118">
        <ele>371</ele>
        <time>2021-01-11T14:53:07Z</time>
      </trkpt>
      <trkpt lat="45.49673" lon="5.14115">
        <ele>371</ele>
        <time>2021-01-11T14:53:10Z</time>
      </trkpt>
      <trkpt lat="45.49678" lon="5.1411">
        <ele>371</ele>
        <time>2021-01-11T14:53:11Z</time>
      </trkpt>
      <trkpt lat="45.49707" lon="5.14112">
        <ele>371</ele>
        <time>2021-01-11T14:53:18Z</time>
      </trkpt>
      <trkpt lat="45.49716" lon="5.14108">
        <ele>372</ele>
        <time>2021-01-11T14:53:20Z</time>
      </trkpt>
      <trkpt lat="45.49719" lon="5.14103">
        <ele>372</ele>
        <time>2021-01-11T14:53:21Z</time>
      </trkpt>
      <trkpt lat="45.49729" lon="5.1407">
        <ele>371</ele>
        <time>2021-01-11T14:53:27Z</time>
      </trkpt>
      <trkpt lat="45.49742" lon="5.1406">
        <ele>371</ele>
        <time>2021-01-11T14:53:31Z</time>
      </trkpt>
      <trkpt lat="45.49875" lon="5.14075">
        <ele>373</ele>
        <time>2021-01-11T14:54:02Z</time>
      </trkpt>
      <trkpt lat="45.49936" lon="5.14107">
        <ele>374</ele>
        <time>2021-01-11T14:54:17Z</time>
      </trkpt>
      <trkpt lat="45.49991" lon="5.14151">
        <ele>376</ele>
        <time>2021-01-11T14:54:32Z</time>
      </trkpt>
      <trkpt lat="45.50021" lon="5.14182">
        <ele>377</ele>
        <time>2021-01-11T14:54:40Z</time>
      </trkpt>
      <trkpt lat="45.50048" lon="5.14203">
        <ele>379</ele>
        <time>2021-01-11T14:54:47Z</time>
      </trkpt>
      <trkpt lat="45.50059" lon="5.14281">
        <ele>380</ele>
        <time>2021-01-11T14:55:00Z</time>
      </trkpt>
      <trkpt lat="45.50185" lon="5.14244">
        <ele>384</ele>
        <time>2021-01-11T14:55:31Z</time>
      </trkpt>
      <trkpt lat="45.50233" lon="5.14243">
        <ele>385</ele>
        <time>2021-01-11T14:55:42Z</time>
      </trkpt>
      <trkpt lat="45.50246" lon="5.14239">
        <ele>386</ele>
        <time>2021-01-11T14:55:45Z</time>
      </trkpt>
      <trkpt lat="45.50247" lon="5.14237">
        <ele>386</ele>
        <time>2021-01-11T14:55:45Z</time>
      </trkpt>
    </trkseg>
  </trk>
</gpx>